Time;durP1;ratioP1;P1;durP2;ratioP2;P2;SDS_P1;SDS_P2;PMS_P1;PMS_P2;Temp;Humidity;BMP_temperature;BMP_pressure;BME280_temperature;BME280_humidity;BME280_pressure;Samples;Min_cycle;Max_cycle;Signal;HPM_P1;HPM_P2
2023/06/09 00:02:03;;;;;;;2.30;0.70;;;;;;;23.83;42.59;101413.97;4997222;28;20386;-45
2023/06/09 00:04:33;;;;;;;1.95;0.70;;;;;;;24.00;42.87;101415.53;4997173;28;20113;-44
2023/06/09 00:07:02;;;;;;;1.50;0.80;;;;;;;24.08;42.34;101417.66;4996787;28;20102;-44
2023/06/09 00:09:31;;;;;;;2.20;0.70;;;;;;;24.24;41.99;101430.16;4997081;28;20065;-44
2023/06/09 00:11:57;;;;;;;2.05;0.93;;;;;;;24.29;42.09;101430.13;4996702;28;20411;-44
2023/06/09 00:14:23;;;;;;;2.90;0.80;;;;;;;24.12;42.03;101424.22;4996745;28;20035;-44
2023/06/09 00:16:51;;;;;;;1.88;0.70;;;;;;;24.12;41.62;101435.16;4996958;28;20026;-44
2023/06/09 00:19:17;;;;;;;1.20;0.55;;;;;;;23.60;42.59;101428.28;4997008;28;20027;-45
2023/06/09 00:21:49;;;;;;;1.27;0.60;;;;;;;23.65;43.12;101433.72;4996665;28;20026;-44
2023/06/09 00:24:20;;;;;;;3.63;0.80;;;;;;;23.45;42.49;101438.13;4996651;28;20113;-44
2023/06/09 00:26:47;;;;;;;3.97;0.93;;;;;;;23.32;43.12;101436.00;4996467;28;20360;-44
2023/06/09 00:29:17;;;;;;;1.35;0.70;;;;;;;23.11;44.54;101443.41;4996373;28;20387;-44
2023/06/09 00:31:43;;;;;;;1.95;0.70;;;;;;;22.82;44.51;101437.69;4996354;28;20037;-44
2023/06/09 00:34:09;;;;;;;1.65;0.63;;;;;;;22.85;45.49;101431.66;4996357;28;20045;-44
2023/06/09 00:36:36;;;;;;;2.05;0.77;;;;;;;23.03;45.06;101440.41;4996325;28;20034;-44
2023/06/09 00:39:03;;;;;;;1.17;0.70;;;;;;;23.04;45.66;101436.56;4996082;28;20073;-44
2023/06/09 00:41:29;;;;;;;2.75;0.90;;;;;;;22.66;45.02;101444.22;4996396;28;20110;-56
2023/06/09 00:43:55;;;;;;;1.27;0.70;;;;;;;22.42;46.10;101440.34;4996433;28;20018;-51
2023/06/09 00:46:23;;;;;;;1.60;0.77;;;;;;;22.43;45.97;101440.06;4996482;28;20482;-52
2023/06/09 00:48:50;;;;;;;2.03;0.60;;;;;;;21.90;46.69;101447.56;4996142;28;20034;-54
2023/06/09 00:51:17;;;;;;;0.95;0.70;;;;;;;21.66;47.34;101436.31;4995522;28;20332;-55
2023/06/09 00:53:43;;;;;;;1.30;0.70;;;;;;;21.63;47.87;101442.25;4996056;28;20030;-49
2023/06/09 00:56:11;;;;;;;2.25;1.00;;;;;;;21.76;48.36;101438.22;4995998;28;20073;-49
2023/06/09 00:58:38;;;;;;;1.38;0.60;;;;;;;21.78;47.76;101436.06;4996631;28;20026;-48
2023/06/09 01:01:04;;;;;;;1.73;0.80;;;;;;;21.94;47.72;101431.50;4995818;28;20081;-51
2023/06/09 01:03:32;;;;;;;2.65;0.70;;;;;;;21.69;47.75;101435.75;4995884;28;20142;-50
2023/06/09 01:06:12;;;;;;;1.45;0.60;;;;;;;21.91;48.29;101426.56;4995862;28;20037;-50
2023/06/09 01:08:45;;;;;;;2.55;0.98;;;;;;;21.72;47.37;101424.34;4996209;28;20026;-46
2023/06/09 01:11:51;;;;;;;1.48;0.80;;;;;;;21.82;48.04;101424.38;4995694;28;20368;-46
2023/06/09 01:14:56;;;;;;;6.10;1.20;;;;;;;21.62;48.28;101432.47;4995578;28;20044;-46
2023/06/09 01:17:27;;;;;;;3.40;1.83;;;;;;;21.61;48.09;101439.81;5010613;28;20030;-49
2023/06/09 01:19:57;;;;;;;1.08;0.70;;;;;;;21.16;48.29;101432.19;4995931;28;20068;-47
2023/06/09 01:22:36;;;;;;;1.80;0.88;;;;;;;20.99;48.92;101436.97;4995419;28;20445;-46
2023/06/09 01:25:20;;;;;;;0.68;0.52;;;;;;;20.99;49.56;101442.41;4995530;28;20034;-46
2023/06/09 01:27:50;;;;;;;2.83;0.90;;;;;;;20.79;49.03;101437.59;4994908;28;20550;-46
2023/06/09 01:30:18;;;;;;;1.35;0.80;;;;;;;20.90;49.68;101449.41;4995083;28;20574;-47
2023/06/09 01:32:45;;;;;;;2.10;0.80;;;;;;;20.88;49.36;101444.22;4994952;28;20030;-48
2023/06/09 01:35:12;;;;;;;1.38;0.88;;;;;;;21.21;49.49;101443.09;4994854;28;20105;-47
2023/06/09 01:37:39;;;;;;;1.88;0.85;;;;;;;21.14;49.33;101447.94;4995939;28;20034;-47
2023/06/09 01:40:09;;;;;;;2.50;0.98;;;;;;;21.25;48.62;101457.81;4995606;28;20129;-46
2023/06/09 01:42:36;;;;;;;1.77;0.93;;;;;;;21.15;49.60;101459.63;4995176;28;20026;-45
2023/06/09 01:45:02;;;;;;;1.65;0.95;;;;;;;21.25;49.68;101465.97;4995571;28;20036;-47
2023/06/09 01:47:28;;;;;;;1.73;0.80;;;;;;;21.31;49.34;101455.97;4995360;28;20026;-47
2023/06/09 01:50:03;;;;;;;2.17;0.70;;;;;;;21.41;49.15;101460.66;4994942;28;20026;-47
2023/06/09 01:52:53;;;;;;;2.10;0.90;;;;;;;21.14;49.35;101456.09;4995339;28;20492;-46
2023/06/09 01:55:24;;;;;;;2.00;1.00;;;;;;;21.47;49.76;101454.16;4995017;28;20026;-48
2023/06/09 01:57:59;;;;;;;4.20;0.60;;;;;;;21.73;48.85;101469.56;4995197;28;20471;-49
2023/06/09 02:00:27;;;;;;;1.80;0.80;;;;;;;21.87;48.20;101470.69;4995216;28;20031;-49
2023/06/09 02:02:57;;;;;;;2.03;0.88;;;;;;;22.13;47.55;101471.66;4993690;28;20060;-48
2023/06/09 02:05:23;;;;;;;1.35;0.70;;;;;;;22.51;45.92;101483.22;4994974;28;20463;-50
2023/06/09 02:07:53;;;;;;;0.70;0.60;;;;;;;22.75;45.53;101482.69;4994721;28;20389;-49
2023/06/09 02:10:23;;;;;;;2.92;0.75;;;;;;;22.63;45.89;101482.94;4994482;28;20466;-49
2023/06/09 02:12:49;;;;;;;1.75;0.77;;;;;;;22.38;45.73;101478.28;4994509;28;20030;-49
2023/06/09 02:15:16;;;;;;;2.20;0.80;;;;;;;22.62;45.62;101484.03;4994572;28;20062;-45
2023/06/09 02:17:42;;;;;;;1.45;0.75;;;;;;;22.66;46.41;101479.69;4994609;28;20026;-49
2023/06/09 02:20:10;;;;;;;1.98;0.80;;;;;;;22.82;45.77;101475.88;4994445;28;20498;-50
2023/06/09 02:22:37;;;;;;;1.98;0.95;;;;;;;23.09;45.13;101472.06;4994413;28;20036;-49
2023/06/09 02:25:04;;;;;;;2.15;1.02;;;;;;;23.45;43.96;101476.38;4994267;28;20031;-47
2023/06/09 02:27:31;;;;;;;1.63;1.00;;;;;;;23.52;43.63;101467.09;4994313;28;20031;-48
2023/06/09 02:29:57;;;;;;;2.72;0.80;;;;;;;23.82;43.56;101471.66;4994161;28;20026;-47
2023/06/09 02:32:23;;;;;;;1.92;0.93;;;;;;;23.83;43.05;101462.38;4994226;28;20368;-46
2023/06/09 02:34:49;;;;;;;3.70;0.88;;;;;;;23.81;42.50;101470.84;4994225;28;20058;-48
2023/06/09 02:37:16;;;;;;;2.47;0.85;;;;;;;23.93;42.50;101474.09;4994154;28;20360;-49
2023/06/09 02:39:42;;;;;;;1.65;0.93;;;;;;;23.84;42.51;101480.41;4993769;28;20069;-49
2023/06/09 02:42:08;;;;;;;2.70;1.00;;;;;;;23.83;42.68;101479.59;4994127;28;20065;-49
2023/06/09 02:44:38;;;;;;;1.35;0.77;;;;;;;23.42;43.18;101484.31;4994326;28;20022;-49
2023/06/09 02:47:05;;;;;;;1.60;0.77;;;;;;;23.55;42.99;101477.47;4994277;28;20515;-48
2023/06/09 02:49:31;;;;;;;2.08;0.90;;;;;;;23.40;43.31;101478.31;4993856;28;20463;-48
2023/06/09 02:51:58;;;;;;;1.63;0.60;;;;;;;23.29;43.85;101484.88;4993869;28;20026;-49
2023/06/09 02:54:24;;;;;;;2.00;1.10;;;;;;;23.09;44.43;101488.44;4993776;28;20031;-46
2023/06/09 02:56:52;;;;;;;2.20;1.08;;;;;;;22.92;44.64;101489.53;4994188;28;20379;-49
2023/06/09 02:59:19;;;;;;;1.27;0.73;;;;;;;22.60;45.61;101494.41;4993865;28;20030;-47
2023/06/09 03:01:45;;;;;;;2.45;0.70;;;;;;;22.17;46.51;101488.31;4993726;28;20034;-48
2023/06/09 03:04:11;;;;;;;2.35;0.90;;;;;;;21.96;47.12;101489.28;4993693;28;20061;-46
2023/06/09 03:06:39;;;;;;;1.23;0.65;;;;;;;21.87;47.19;101497.94;4993697;28;20183;-50
2023/06/09 03:09:06;;;;;;;0.68;0.52;;;;;;;21.45;47.93;101502.66;4994001;28;20022;-49
2023/06/09 03:11:32;;;;;;;1.73;0.77;;;;;;;21.35;48.88;101498.75;4993608;28;20500;-50
2023/06/09 03:13:58;;;;;;;2.75;1.13;;;;;;;21.20;48.92;101498.59;4993488;28;20471;-50
2023/06/09 03:16:25;;;;;;;1.98;0.80;;;;;;;20.72;50.33;101503.13;4993629;28;20019;-49
2023/06/09 03:18:51;;;;;;;2.92;0.95;;;;;;;20.46;51.11;101503.94;4992332;28;20054;-50
2023/06/09 03:21:24;;;;;;;1.95;0.80;;;;;;;20.45;51.14;101504.97;4993504;28;20084;-50
2023/06/09 03:23:50;;;;;;;2.58;0.90;;;;;;;20.30;51.73;101508.34;4993525;28;20078;-50
2023/06/09 03:26:17;;;;;;;1.33;0.80;;;;;;;20.04;52.55;101502.63;4993476;28;20037;-50
2023/06/09 03:28:44;;;;;;;2.15;1.10;;;;;;;19.83;53.19;101505.34;4993403;28;20041;-50
2023/06/09 03:31:13;;;;;;;1.05;0.75;;;;;;;19.84;52.88;101506.97;4993389;28;20030;-50
2023/06/09 03:33:39;;;;;;;1.42;0.65;;;;;;;19.61;53.38;101511.56;4993718;28;20073;-49
2023/06/09 03:36:05;;;;;;;4.22;0.88;;;;;;;19.43;53.69;101501.75;4993772;28;20033;-50
2023/06/09 03:38:34;;;;;;;1.52;0.98;;;;;;;19.30;54.61;101512.13;4993046;28;20133;-50
2023/06/09 03:41:01;;;;;;;1.48;1.00;;;;;;;19.23;54.63;101513.13;4993435;28;20022;-48
2023/06/09 03:43:28;;;;;;;2.10;0.82;;;;;;;19.25;54.65;101508.25;4993403;28;20026;-46
2023/06/09 03:45:55;;;;;;;3.33;1.02;;;;;;;18.98;55.57;101507.25;4993320;28;20026;-50
2023/06/09 03:48:21;;;;;;;1.10;0.70;;;;;;;18.81;56.28;101509.13;4993559;28;20386;-49
2023/06/09 03:50:48;;;;;;;2.45;1.05;;;;;;;18.82;55.78;101505.34;4994224;28;20038;-50
2023/06/09 03:53:14;;;;;;;1.90;0.70;;;;;;;18.73;55.93;101518.50;4993257;28;20483;-49
2023/06/09 03:55:40;;;;;;;1.98;0.90;;;;;;;18.64;56.37;101512.59;4993306;28;20026;-49
2023/06/09 03:58:10;;;;;;;1.75;0.88;;;;;;;18.52;57.05;101517.28;4993263;28;20030;-48
2023/06/09 04:00:36;;;;;;;3.08;1.00;;;;;;;18.50;57.48;101510.47;4993351;28;20022;-47
2023/06/09 04:03:02;;;;;;;1.95;0.95;;;;;;;18.53;57.13;101518.09;4993150;28;20027;-48
2023/06/09 04:05:28;;;;;;;1.95;0.98;;;;;;;18.46;57.71;101520.94;4993736;28;20525;-48
2023/06/09 04:07:55;;;;;;;2.40;0.80;;;;;;;18.42;57.58;101519.78;4993332;28;20101;-49
2023/06/09 04:10:21;;;;;;;2.63;1.00;;;;;;;18.45;57.48;101522.03;4993962;28;20045;-50
2023/06/09 04:12:48;;;;;;;2.05;0.90;;;;;;;18.31;58.32;101517.94;4993756;28;20030;-50
2023/06/09 04:15:15;;;;;;;1.52;1.00;;;;;;;18.16;58.54;101521.19;4993731;28;20024;-48
2023/06/09 04:17:41;;;;;;;2.42;1.00;;;;;;;18.01;59.18;101524.38;4993141;28;20027;-48
2023/06/09 04:20:08;;;;;;;3.63;1.20;;;;;;;17.85;59.45;101528.66;4993079;28;20034;-50
2023/06/09 04:22:34;;;;;;;2.15;1.30;;;;;;;17.88;59.17;101524.66;4993145;28;20019;-47
2023/06/09 04:25:01;;;;;;;2.30;0.90;;;;;;;17.79;59.77;101528.78;4993445;28;20026;-49
2023/06/09 04:27:29;;;;;;;1.85;1.10;;;;;;;17.92;59.44;101531.22;4996677;28;20026;-48
2023/06/09 04:29:56;;;;;;;2.55;1.27;;;;;;;17.72;59.73;101533.47;4996330;28;20023;-51
2023/06/09 04:32:26;;;;;;;2.13;1.25;;;;;;;17.48;60.52;101533.44;4996959;28;20050;-51
2023/06/09 04:34:52;;;;;;;3.72;1.45;;;;;;;17.39;60.90;101546.53;4996671;28;20105;-49
2023/06/09 04:37:19;;;;;;;1.60;1.13;;;;;;;16.91;62.45;101548.53;4996526;28;20033;-47
2023/06/09 04:39:47;;;;;;;2.45;1.15;;;;;;;17.02;61.70;101556.69;4996492;28;20517;-45
2023/06/09 04:42:14;;;;;;;2.25;1.00;;;;;;;16.85;62.17;101544.88;4996476;28;20467;-47
2023/06/09 04:44:40;;;;;;;1.58;0.93;;;;;;;16.73;62.92;101552.13;4996208;28;20033;-48
2023/06/09 04:47:07;;;;;;;2.40;1.00;;;;;;;16.76;62.61;101557.06;4996264;28;20084;-47
2023/06/09 04:49:35;;;;;;;2.95;1.10;;;;;;;16.89;62.45;101559.59;4996225;28;20037;-49
2023/06/09 04:52:02;;;;;;;2.92;1.00;;;;;;;16.88;62.42;101557.94;4996293;28;20066;-48
2023/06/09 04:54:28;;;;;;;1.85;0.90;;;;;;;16.87;62.06;101557.09;4996283;28;20026;-46
2023/06/09 04:56:57;;;;;;;1.70;0.93;;;;;;;16.63;63.40;101561.56;4996245;28;20030;-48
2023/06/09 04:59:25;;;;;;;1.73;1.08;;;;;;;16.66;63.29;101560.31;4996179;28;20105;-47
2023/06/09 05:01:53;;;;;;;2.38;1.00;;;;;;;16.58;63.17;101561.44;4996146;28;20026;-50
2023/06/09 05:04:20;;;;;;;2.00;0.80;;;;;;;16.59;63.33;101552.25;5010968;28;20046;-49
2023/06/09 05:06:46;;;;;;;2.47;0.98;;;;;;;16.66;62.84;101559.44;4996464;28;20030;-45
2023/06/09 05:09:12;;;;;;;2.13;0.90;;;;;;;16.51;63.93;101566.09;4996402;28;20030;-46
2023/06/09 05:11:39;;;;;;;1.95;0.70;;;;;;;16.41;64.05;101564.97;4995930;28;20022;-48
2023/06/09 05:14:05;;;;;;;3.65;1.05;;;;;;;16.39;64.24;101567.09;4995997;28;20022;-47
2023/06/09 05:16:34;;;;;;;2.28;1.00;;;;;;;16.35;64.40;101572.94;4996000;28;20072;-46
2023/06/09 05:19:01;;;;;;;2.13;0.85;;;;;;;16.33;64.83;101568.84;4996322;28;20026;-47
2023/06/09 05:21:27;;;;;;;2.65;1.10;;;;;;;16.50;64.26;101572.56;4995857;28;20394;-45
2023/06/09 05:23:53;;;;;;;2.25;1.00;;;;;;;16.30;64.70;101567.41;4995820;28;20152;-47
2023/06/09 05:26:20;;;;;;;1.48;1.00;;;;;;;16.22;65.42;101575.00;4995997;28;20042;-46
2023/06/09 05:28:47;;;;;;;3.53;1.30;;;;;;;16.17;65.60;101574.84;4995917;28;20113;-51
2023/06/09 05:31:16;;;;;;;1.92;1.17;;;;;;;16.27;65.21;101577.84;4995661;28;20040;-46
2023/06/09 05:33:43;;;;;;;1.20;0.95;;;;;;;16.09;65.69;101578.66;4995579;28;20025;-47
2023/06/09 05:36:09;;;;;;;2.13;1.17;;;;;;;16.18;65.66;101580.00;4995300;28;20475;-46
2023/06/09 05:38:36;;;;;;;1.95;0.95;;;;;;;16.04;65.98;101586.59;4995466;28;20043;-47
2023/06/09 05:41:02;;;;;;;3.03;1.00;;;;;;;16.06;65.63;101571.84;4995480;28;20031;-47
2023/06/09 05:43:29;;;;;;;4.38;1.05;;;;;;;16.00;65.99;101570.03;4995422;28;20081;-46
2023/06/09 05:45:57;;;;;;;1.55;1.00;;;;;;;15.96;66.28;101570.69;4995275;28;20505;-47
2023/06/09 05:48:23;;;;;;;7.32;1.00;;;;;;;15.90;66.79;101567.03;4995287;28;20026;-47
2023/06/09 05:50:49;;;;;;;2.53;0.95;;;;;;;16.02;66.60;101573.31;5010230;28;20026;-46
2023/06/09 05:53:16;;;;;;;2.58;1.00;;;;;;;15.99;66.51;101565.69;4995510;28;20177;-48
2023/06/09 05:55:45;;;;;;;2.85;1.00;;;;;;;16.00;67.32;101563.81;4995451;28;20101;-46
2023/06/09 05:58:14;;;;;;;2.85;1.00;;;;;;;16.07;66.51;101562.69;4995184;28;20025;-47
2023/06/09 06:00:41;;;;;;;1.45;0.88;;;;;;;16.06;66.57;101563.72;4995079;28;20059;-50
2023/06/09 06:03:09;;;;;;;1.08;0.82;;;;;;;16.23;66.26;101565.84;4994995;28;20022;-47
2023/06/09 06:05:35;;;;;;;1.05;0.80;;;;;;;16.13;66.26;101565.53;4994992;28;20068;-46
2023/06/09 06:08:01;;;;;;;1.88;0.90;;;;;;;16.17;65.94;101564.03;4994747;28;20109;-47
2023/06/09 06:10:27;;;;;;;2.05;0.93;;;;;;;15.99;66.60;101568.38;4994689;28;20042;-46
2023/06/09 06:12:57;;;;;;;1.67;0.88;;;;;;;16.18;66.09;101560.28;4994807;28;20077;-49
2023/06/09 06:15:24;;;;;;;2.20;1.23;;;;;;;16.10;66.29;101556.84;4994992;28;20054;-46
2023/06/09 06:17:51;;;;;;;1.65;0.80;;;;;;;16.10;66.37;101554.13;4994748;28;20057;-47
2023/06/09 06:20:17;;;;;;;2.22;1.00;;;;;;;16.29;65.75;101554.13;4995200;28;20084;-47
2023/06/09 06:22:44;;;;;;;1.83;1.13;;;;;;;16.09;66.21;101555.16;4995364;28;20026;-46
2023/06/09 06:25:13;;;;;;;2.42;1.00;;;;;;;15.98;66.33;101550.50;4994628;28;20018;-46
2023/06/09 06:27:40;;;;;;;2.15;0.90;;;;;;;15.89;66.99;101545.66;4994548;28;20060;-49
2023/06/09 06:30:11;;;;;;;1.70;0.95;;;;;;;16.01;65.77;101554.66;4994510;28;20038;-47
2023/06/09 06:32:40;;;;;;;2.90;1.02;;;;;;;16.09;65.61;101554.34;4994511;28;20117;-49
2023/06/09 06:35:09;;;;;;;1.35;0.98;;;;;;;15.88;66.30;101552.94;4994771;28;20026;-45
2023/06/09 06:37:36;;;;;;;2.67;1.08;;;;;;;15.93;65.76;101547.66;4994539;28;20101;-47
2023/06/09 06:40:03;;;;;;;3.55;0.88;;;;;;;15.96;65.73;101549.91;4994124;28;20473;-46
2023/06/09 06:42:29;;;;;;;2.55;0.82;;;;;;;15.97;65.90;101538.06;4995313;28;20080;-49
2023/06/09 06:44:56;;;;;;;0.80;0.80;;;;;;;15.88;65.45;101538.56;4995700;28;20026;-47
2023/06/09 06:47:22;;;;;;;1.85;1.00;;;;;;;15.93;65.64;101544.94;4995131;28;20023;-47
2023/06/09 06:49:48;;;;;;;2.97;1.15;;;;;;;15.95;65.44;101540.19;4994262;28;20026;-48
2023/06/09 06:52:14;;;;;;;2.50;0.90;;;;;;;15.92;65.24;101546.00;4994267;28;20125;-48
2023/06/09 06:54:40;;;;;;;3.05;0.90;;;;;;;15.82;65.22;101545.69;4994188;28;20026;-46
2023/06/09 06:57:07;;;;;;;1.33;1.00;;;;;;;15.64;66.43;101549.19;4994012;28;20027;-46
2023/06/09 06:59:33;;;;;;;1.65;1.05;;;;;;;15.51;66.72;101541.22;4994075;28;20022;-46
2023/06/09 07:01:59;;;;;;;2.03;1.13;;;;;;;15.57;66.84;101541.16;4994303;28;20023;-46
2023/06/09 07:04:26;;;;;;;1.38;0.90;;;;;;;15.71;65.94;101543.72;4994020;28;20117;-46
2023/06/09 07:06:52;;;;;;;2.28;0.93;;;;;;;15.67;65.84;101537.16;4994236;28;20426;-47
2023/06/09 07:09:19;;;;;;;2.63;1.10;;;;;;;15.59;66.47;101535.50;4993854;28;20057;-46
2023/06/09 07:11:45;;;;;;;2.75;1.30;;;;;;;15.56;66.59;101535.97;4994054;28;20081;-46
2023/06/09 07:14:11;;;;;;;4.00;1.23;;;;;;;15.64;66.24;101532.19;4993738;28;20032;-45
2023/06/09 07:16:38;;;;;;;2.22;0.93;;;;;;;15.52;66.62;101532.88;4993723;28;20030;-47
2023/06/09 07:19:04;;;;;;;1.23;0.90;;;;;;;15.67;66.11;101529.88;4994104;28;20029;-50
2023/06/09 07:21:32;;;;;;;1.23;0.90;;;;;;;15.79;65.70;101524.56;4993726;28;20089;-48
2023/06/09 07:23:58;;;;;;;2.60;1.40;;;;;;;15.64;65.94;101522.22;4993661;28;20031;-47
2023/06/09 07:26:25;;;;;;;1.50;1.00;;;;;;;15.66;66.23;101520.13;4993735;28;20027;-46
2023/06/09 07:28:51;;;;;;;2.35;0.90;;;;;;;15.70;65.95;101515.09;4993602;28;20030;-47
2023/06/09 07:31:17;;;;;;;2.25;1.10;;;;;;;15.68;66.27;101517.22;4993944;28;20125;-45
2023/06/09 07:33:43;;;;;;;2.28;0.85;;;;;;;15.51;67.43;101512.34;4993710;28;20058;-45
2023/06/09 07:36:10;;;;;;;1.35;0.90;;;;;;;15.76;66.54;101515.03;4993610;28;20451;-47
2023/06/09 07:38:38;;;;;;;2.55;1.27;;;;;;;15.92;66.26;101520.88;4993353;28;20050;-47
2023/06/09 07:41:05;;;;;;;2.83;1.35;;;;;;;15.93;66.82;101520.66;4993612;28;20026;-46
2023/06/09 07:43:31;;;;;;;1.45;1.00;;;;;;;16.03;66.60;101515.56;4993610;28;20018;-46
2023/06/09 07:45:57;;;;;;;1.63;0.90;;;;;;;15.95;66.86;101515.06;4993340;28;20058;-46
2023/06/09 07:48:24;;;;;;;1.23;0.95;;;;;;;16.00;66.56;101517.91;4993520;28;20034;-46
2023/06/09 07:50:51;;;;;;;2.15;1.10;;;;;;;16.08;66.25;101518.41;4992181;28;20124;-46
2023/06/09 07:53:18;;;;;;;3.47;1.38;;;;;;;16.19;65.46;101518.72;4993458;28;20160;-47
2023/06/09 07:55:45;;;;;;;1.92;0.93;;;;;;;16.09;65.67;101516.53;4993510;28;20042;-47
2023/06/09 07:58:11;;;;;;;2.17;1.17;;;;;;;16.12;65.69;101516.09;4993682;28;20026;-48
2023/06/09 08:00:37;;;;;;;2.65;1.23;;;;;;;16.25;65.45;101523.19;4996823;28;20049;-47
2023/06/09 08:03:04;;;;;;;3.42;1.10;;;;;;;16.36;64.87;101515.16;4997301;28;20540;-46
2023/06/09 08:05:31;;;;;;;2.17;1.10;;;;;;;16.34;64.59;101511.88;4997167;28;20034;-46
2023/06/09 08:07:58;;;;;;;1.35;0.80;;;;;;;16.46;64.63;101514.63;4997038;28;20038;-46
2023/06/09 08:10:27;;;;;;;1.40;1.05;;;;;;;16.44;64.33;101511.31;4997107;28;20030;-46
2023/06/09 08:12:53;;;;;;;2.13;1.70;;;;;;;16.37;65.08;101511.38;4996911;28;20402;-46
2023/06/09 08:15:20;;;;;;;2.08;1.00;;;;;;;16.37;63.92;101505.16;4997012;28;20505;-46
2023/06/09 08:17:47;;;;;;;0.80;0.80;;;;;;;16.40;62.92;101502.03;4997022;28;20031;-46
2023/06/09 08:20:13;;;;;;;0.80;0.80;;;;;;;16.35;63.66;101501.88;4997012;28;20038;-46
2023/06/09 08:22:39;;;;;;;1.33;0.95;;;;;;;16.28;63.87;101501.97;4996893;28;20491;-47
2023/06/09 08:25:07;;;;;;;1.55;0.80;;;;;;;16.24;64.14;101499.94;4996876;28;20034;-50
2023/06/09 08:27:33;;;;;;;1.65;0.80;;;;;;;16.01;64.23;101498.78;4996808;28;20026;-49
2023/06/09 08:29:59;;;;;;;1.77;0.88;;;;;;;15.97;64.89;101500.25;4996740;28;20032;-49
2023/06/09 08:32:25;;;;;;;2.65;0.80;;;;;;;15.93;65.27;101490.97;4997094;28;20053;-46
2023/06/09 08:34:52;;;;;;;1.00;0.68;;;;;;;15.80;65.56;101499.22;4996705;28;20033;-49
2023/06/09 08:37:19;;;;;;;2.40;0.98;;;;;;;15.83;65.48;101490.69;4996752;28;20037;-46
2023/06/09 08:39:47;;;;;;;2.22;0.80;;;;;;;15.62;66.09;101489.22;4996546;28;20119;-47
2023/06/09 08:42:25;;;;;;;3.80;1.08;;;;;;;15.72;65.88;101491.44;4996666;28;20030;-48
2023/06/09 08:45:03;;;;;;;1.63;0.90;;;;;;;15.72;66.07;101486.84;4996547;28;20054;-47
2023/06/09 08:47:32;;;;;;;1.65;0.77;;;;;;;15.89;65.25;101486.25;4996560;28;20093;-49
2023/06/09 08:49:59;;;;;;;1.40;0.75;;;;;;;15.96;64.18;101487.00;4996629;28;20117;-48
2023/06/09 08:52:27;;;;;;;1.58;0.80;;;;;;;15.87;64.93;101486.47;4996427;28;20065;-46
2023/06/09 08:54:55;;;;;;;0.98;0.70;;;;;;;15.98;65.10;101493.00;4996615;28;20050;-46
2023/06/09 08:57:22;;;;;;;3.10;0.95;;;;;;;15.88;65.44;101484.59;4996594;28;20030;-46
2023/06/09 08:59:50;;;;;;;1.77;0.80;;;;;;;15.94;65.41;101484.53;4996225;28;20027;-46
2023/06/09 09:02:18;;;;;;;1.58;0.90;;;;;;;16.20;64.71;101480.66;4996998;28;20128;-47
2023/06/09 09:04:47;;;;;;;1.75;1.00;;;;;;;15.78;65.59;101479.72;4996190;28;20113;-49
2023/06/09 09:07:13;;;;;;;1.85;0.90;;;;;;;15.92;65.62;101475.81;4996124;28;20101;-47
2023/06/09 09:09:41;;;;;;;1.15;0.80;;;;;;;15.82;65.92;101480.91;4995997;28;20537;-50
2023/06/09 09:12:13;;;;;;;1.70;0.70;;;;;;;15.53;67.01;101483.28;4995686;28;20030;-46
2023/06/09 09:14:47;;;;;;;1.67;0.85;;;;;;;15.66;66.33;101476.13;4995979;28;20022;-50
2023/06/09 09:17:15;;;;;;;0.80;0.80;;;;;;;15.82;65.99;101473.66;4996296;28;20518;-47
2023/06/09 09:19:49;;;;;;;1.92;0.77;;;;;;;15.63;66.50;101480.09;4996198;28;20042;-48
2023/06/09 09:22:16;;;;;;;1.65;0.90;;;;;;;15.58;66.77;101467.22;4996490;28;20102;-49
2023/06/09 09:24:45;;;;;;;1.58;1.00;;;;;;;15.62;67.10;101464.94;4996708;28;20113;-47
2023/06/09 09:27:19;;;;;;;2.00;0.90;;;;;;;15.63;67.67;101465.78;4996293;28;20030;-50
2023/06/09 09:29:46;;;;;;;2.45;1.05;;;;;;;15.79;66.83;101467.88;4995629;28;20027;-50
2023/06/09 09:32:13;;;;;;;2.42;1.00;;;;;;;15.80;66.95;101473.03;4995698;28;20034;-46
2023/06/09 09:34:47;;;;;;;2.20;0.90;;;;;;;15.83;66.75;101466.38;4995974;28;20125;-47
2023/06/09 09:37:16;;;;;;;1.27;0.77;;;;;;;15.92;66.06;101469.59;4995597;28;20027;-50
2023/06/09 09:39:53;;;;;;;1.33;0.80;;;;;;;15.75;66.84;101469.38;4995252;28;20510;-50
2023/06/09 09:42:21;;;;;;;3.85;0.82;;;;;;;15.83;66.14;101464.50;4995514;28;20026;-50
2023/06/09 09:44:50;;;;;;;1.65;0.77;;;;;;;15.81;66.62;101457.66;4995638;28;20030;-50
2023/06/09 09:47:18;;;;;;;1.58;0.80;;;;;;;15.53;67.19;101461.69;4995425;28;20115;-50
2023/06/09 09:49:54;;;;;;;2.28;1.05;;;;;;;15.78;66.58;101458.13;4995218;28;20034;-50
2023/06/09 09:52:31;;;;;;;2.00;0.95;;;;;;;15.70;66.95;101455.72;4995338;28;20058;-49
2023/06/09 09:55:00;;;;;;;3.33;1.10;;;;;;;15.61;67.11;101457.06;4995187;28;20113;-50
2023/06/09 09:57:31;;;;;;;5.05;1.20;;;;;;;15.73;66.71;101447.19;4995187;28;20022;-50
2023/06/09 10:00:12;;;;;;;1.33;1.00;;;;;;;15.71;66.42;101457.38;4995436;28;20065;-48
2023/06/09 10:02:43;;;;;;;1.48;1.10;;;;;;;15.69;66.46;101454.09;4995401;28;20486;-49
2023/06/09 10:05:10;;;;;;;2.85;1.08;;;;;;;15.59;66.74;101458.09;4995476;28;20061;-48
2023/06/09 10:07:40;;;;;;;2.95;1.05;;;;;;;15.73;66.46;101460.69;4994990;28;20402;-49
2023/06/09 10:10:08;;;;;;;1.83;0.90;;;;;;;15.73;66.47;101455.28;4995214;28;20502;-46
2023/06/09 10:12:38;;;;;;;2.63;0.93;;;;;;;15.83;66.27;101455.59;4994889;28;20532;-50
2023/06/09 10:15:10;;;;;;;3.83;0.90;;;;;;;15.79;66.10;101459.78;4995062;28;20053;-46
2023/06/09 10:17:37;;;;;;;2.25;1.15;;;;;;;15.87;66.11;101456.78;4994828;28;20091;-48
2023/06/09 10:20:05;;;;;;;1.55;1.00;;;;;;;15.75;66.51;101458.56;4994821;28;20038;-47
2023/06/09 10:22:31;;;;;;;1.95;0.90;;;;;;;15.75;66.83;101458.56;4993959;28;20061;-49
2023/06/09 10:24:58;;;;;;;2.47;1.00;;;;;;;15.78;66.29;101458.13;4994318;28;20109;-47
2023/06/09 10:27:24;;;;;;;2.50;1.15;;;;;;;15.84;66.25;101462.63;4994530;28;20113;-49
2023/06/09 10:29:51;;;;;;;2.90;1.45;;;;;;;15.94;66.19;101459.41;4994470;28;20034;-50
2023/06/09 10:32:24;;;;;;;1.20;0.90;;;;;;;15.95;66.09;101463.75;4994759;28;20037;-50
2023/06/09 10:34:53;;;;;;;1.88;1.02;;;;;;;15.87;66.05;101461.34;4994831;28;20030;-50
2023/06/09 10:37:41;;;;;;;1.40;0.73;;;;;;;16.02;66.04;101462.59;4994299;28;20042;-50
2023/06/09 10:40:29;;;;;;;1.80;0.90;;;;;;;15.80;65.95;101461.44;4994346;28;20212;-49
2023/06/09 10:43:13;;;;;;;1.17;0.80;;;;;;;15.81;66.00;101457.66;4994263;28;20076;-47
2023/06/09 10:45:57;;;;;;;4.05;0.93;;;;;;;15.69;66.05;101460.31;4994621;28;20023;-50
2023/06/09 10:48:43;;;;;;;1.85;0.93;;;;;;;15.83;65.25;101461.00;4994195;28;20431;-46
2023/06/09 10:51:27;;;;;;;3.42;1.10;;;;;;;15.81;65.58;101466.59;4994153;28;20074;-48
2023/06/09 10:54:17;;;;;;;2.60;1.10;;;;;;;15.77;65.39;101464.59;4994034;28;20030;-49
2023/06/09 10:56:46;;;;;;;2.63;1.00;;;;;;;15.48;66.17;101463.41;4994407;28;20018;-47
2023/06/09 10:59:30;;;;;;;2.92;1.10;;;;;;;15.56;66.55;101463.13;4994150;28;20018;-47
2023/06/09 11:02:05;;;;;;;1.58;0.80;;;;;;;15.58;66.71;101458.31;4994017;28;20440;-47
2023/06/09 11:04:46;;;;;;;2.40;0.80;;;;;;;15.72;66.17;101457.16;4994706;28;20077;-50
2023/06/09 11:07:18;;;;;;;2.22;1.23;;;;;;;15.66;65.76;101459.94;4993914;28;20035;-49
2023/06/09 11:09:47;;;;;;;2.60;0.90;;;;;;;15.48;66.46;101458.00;4994106;28;20018;-47
2023/06/09 11:12:27;;;;;;;2.35;1.08;;;;;;;15.35;67.05;101460.84;4994137;28;20022;-49
2023/06/09 11:15:02;;;;;;;3.15;1.23;;;;;;;15.37;66.85;101456.03;4994209;28;20014;-49
2023/06/09 11:17:44;;;;;;;3.10;0.97;;;;;;;15.38;67.00;101453.16;4993858;28;20426;-50
2023/06/09 11:20:11;;;;;;;2.70;1.50;;;;;;;15.42;66.56;101443.53;4994490;28;20267;-49
2023/06/09 11:22:50;;;;;;;2.15;1.13;;;;;;;15.44;66.07;101438.75;4993664;28;20030;-47
2023/06/09 11:25:19;;;;;;;2.30;0.98;;;;;;;15.30;66.63;101443.44;4993872;28;20034;-48
2023/06/09 11:27:47;;;;;;;3.03;1.25;;;;;;;15.30;67.00;101442.63;4993922;28;20026;-47
2023/06/09 11:30:18;;;;;;;2.63;0.95;;;;;;;15.21;67.05;101447.50;4993567;28;20040;-49
2023/06/09 11:32:45;;;;;;;2.22;1.10;;;;;;;15.29;66.64;101440.97;4993497;28;20066;-50